createdAt,value
2023-04-26T00:02:21.026Z,100.00
2023-04-26T00:04:55.827Z,100.00
2023-04-26T00:07:24.862Z,100.00
2023-04-26T00:09:53.318Z,100.00
2023-04-26T00:12:22.052Z,100.00
2023-04-26T00:14:50.251Z,100.00
2023-04-26T00:17:18.140Z,100.00
2023-04-26T00:19:46.964Z,100.00
2023-04-26T00:22:16.362Z,100.00
2023-04-26T00:24:44.413Z,100.00
2023-04-26T00:27:12.710Z,100.00
2023-04-26T00:29:41.239Z,100.00
2023-04-26T00:32:09.157Z,100.00
2023-04-26T00:34:38.438Z,100.00
2023-04-26T00:37:06.769Z,100.00
2023-04-26T00:39:35.996Z,100.00
2023-04-26T00:42:03.916Z,100.00
2023-04-26T00:44:31.788Z,100.00
2023-04-26T00:46:59.738Z,100.00
2023-04-26T00:49:27.721Z,100.00
2023-04-26T00:51:56.093Z,100.00
2023-04-26T00:54:23.945Z,100.00
2023-04-26T00:56:53.361Z,100.00
2023-04-26T00:59:21.578Z,100.00
2023-04-26T01:01:49.669Z,100.00
2023-04-26T01:04:18.512Z,100.00
2023-04-26T01:06:46.994Z,100.00
2023-04-26T01:09:15.639Z,100.00
2023-04-26T01:11:45.300Z,100.00
2023-04-26T01:14:16.101Z,100.00
2023-04-26T01:16:46.991Z,100.00
2023-04-26T01:19:15.367Z,100.00
2023-04-26T01:21:43.947Z,100.00
2023-04-26T01:24:14.721Z,100.00
2023-04-26T01:26:45.797Z,100.00
2023-04-26T01:29:16.678Z,100.00
2023-04-26T01:31:44.971Z,100.00
2023-04-26T01:34:12.823Z,100.00
2023-04-26T01:36:41.044Z,100.00
2023-04-26T01:39:09.324Z,100.00
2023-04-26T01:41:38.665Z,100.00
2023-04-26T01:44:06.755Z,100.00
2023-04-26T01:46:34.715Z,100.00
2023-04-26T01:49:02.564Z,100.00
2023-04-26T01:51:31.296Z,100.00
2023-04-26T01:53:59.935Z,100.00
2023-04-26T01:56:27.707Z,100.00
2023-04-26T01:58:57.459Z,100.00
2023-04-26T02:01:25.513Z,100.00
2023-04-26T02:03:53.468Z,100.00
2023-04-26T02:06:21.591Z,100.00
2023-04-26T02:08:49.625Z,100.00
2023-04-26T02:11:17.635Z,100.00
2023-04-26T02:13:45.472Z,100.00
2023-04-26T02:16:16.225Z,100.00
2023-04-26T02:18:44.376Z,100.00
2023-04-26T02:21:12.946Z,100.00
2023-04-26T02:23:40.740Z,100.00
2023-04-26T02:26:11.689Z,100.00
2023-04-26T02:28:39.696Z,100.00
2023-04-26T02:31:07.662Z,100.00
2023-04-26T02:33:36.906Z,100.00
2023-04-26T02:36:06.040Z,100.00
2023-04-26T02:38:36.264Z,100.00
2023-04-26T02:41:05.983Z,100.00
2023-04-26T02:43:34.506Z,100.00
2023-04-26T02:46:02.458Z,100.00
2023-04-26T02:48:31.939Z,100.00
2023-04-26T02:51:01.166Z,100.00
2023-04-26T02:53:29.046Z,100.00
2023-04-26T02:55:56.819Z,100.00
2023-04-26T02:58:24.603Z,100.00
2023-04-26T03:00:54.441Z,100.00
2023-04-26T03:03:23.056Z,100.00
2023-04-26T03:05:51.400Z,100.00
2023-04-26T03:08:20.816Z,100.00
2023-04-26T03:10:48.666Z,100.00
2023-04-26T03:13:16.479Z,100.00
2023-04-26T03:15:45.935Z,100.00
2023-04-26T03:18:13.786Z,100.00
2023-04-26T03:20:42.892Z,100.00
2023-04-26T03:23:13.948Z,100.00
2023-04-26T03:25:43.098Z,100.00
2023-04-26T03:28:10.996Z,100.00
2023-04-26T03:30:39.028Z,100.00
2023-04-26T03:33:07.077Z,100.00
2023-04-26T03:35:34.924Z,100.00
2023-04-26T03:38:02.748Z,100.00
2023-04-26T03:40:30.553Z,100.00
2023-04-26T03:42:59.890Z,100.00
2023-04-26T03:45:27.807Z,100.00
2023-04-26T03:47:56.721Z,100.00
2023-04-26T03:50:24.772Z,100.00
2023-04-26T03:52:52.959Z,100.00
2023-04-26T03:55:21.238Z,100.00
2023-04-26T03:57:49.218Z,100.00
2023-04-26T04:00:18.625Z,100.00
2023-04-26T04:02:47.961Z,100.00
2023-04-26T04:05:24.099Z,100.00
2023-04-26T04:07:52.115Z,100.00
2023-04-26T04:10:22.883Z,100.00
2023-04-26T04:12:51.259Z,100.00
2023-04-26T04:15:21.151Z,100.00
2023-04-26T04:17:49.945Z,100.00
2023-04-26T04:20:17.988Z,100.00
2023-04-26T04:22:46.071Z,100.00
2023-04-26T04:25:14.143Z,100.00
2023-04-26T04:27:43.974Z,100.00
2023-04-26T04:30:12.910Z,100.00
2023-04-26T04:32:45.048Z,100.00
2023-04-26T04:35:14.454Z,100.00
2023-04-26T04:37:44.048Z,100.00
2023-04-26T04:40:13.374Z,100.00
2023-04-26T04:42:44.552Z,100.00
2023-04-26T04:45:12.660Z,100.00
2023-04-26T04:47:42.217Z,100.00
2023-04-26T04:50:10.195Z,100.00
2023-04-26T04:52:38.603Z,100.00
2023-04-26T04:55:07.189Z,100.00
2023-04-26T04:57:37.019Z,100.00
2023-04-26T05:00:10.429Z,100.00
2023-04-26T05:02:45.994Z,100.00
2023-04-26T05:05:14.055Z,100.00
2023-04-26T05:07:41.931Z,100.00
2023-04-26T05:10:10.364Z,100.00
2023-04-26T05:12:38.285Z,100.00
2023-04-26T05:15:07.163Z,100.00
2023-04-26T05:17:35.174Z,100.00
2023-04-26T05:20:14.891Z,100.00
2023-04-26T05:22:42.918Z,100.00
2023-04-26T05:25:11.595Z,100.00
2023-04-26T05:27:40.454Z,100.00
2023-04-26T05:30:16.604Z,100.00
2023-04-26T05:33:04.937Z,100.00
2023-04-26T05:35:42.849Z,100.00
2023-04-26T05:38:10.680Z,100.00
2023-04-26T05:40:38.591Z,100.00
2023-04-26T05:43:06.907Z,100.00
2023-04-26T05:45:36.561Z,100.00
2023-04-26T05:48:04.813Z,100.00
2023-04-26T05:50:33.000Z,100.00
2023-04-26T05:53:02.429Z,100.00
2023-04-26T05:55:30.611Z,100.00
2023-04-26T05:57:58.713Z,100.00
2023-04-26T06:00:26.917Z,100.00
2023-04-26T06:02:54.941Z,100.00
2023-04-26T06:05:23.244Z,100.00
2023-04-26T06:07:51.846Z,100.00
2023-04-26T06:10:21.141Z,100.00
2023-04-26T06:12:48.958Z,100.00
2023-04-26T06:15:18.129Z,100.00
2023-04-26T06:17:46.228Z,100.00
2023-04-26T06:20:14.107Z,100.00
2023-04-26T06:22:42.081Z,100.00
2023-04-26T06:25:10.492Z,100.00
2023-04-26T06:27:41.045Z,100.00
2023-04-26T06:30:11.415Z,100.00
2023-04-26T06:32:42.996Z,100.00
2023-04-26T06:35:11.382Z,100.00
2023-04-26T06:37:39.882Z,100.00
2023-04-26T06:40:11.044Z,100.00
2023-04-26T06:42:38.939Z,100.00
2023-04-26T06:45:23.295Z,100.00
2023-04-26T06:47:53.161Z,100.00
2023-04-26T06:50:24.786Z,100.00
2023-04-26T06:52:52.628Z,100.00
2023-04-26T06:55:20.650Z,100.00
2023-04-26T06:57:48.453Z,100.00
2023-04-26T07:00:17.953Z,100.00
2023-04-26T07:02:47.359Z,100.00
2023-04-26T07:05:16.001Z,100.00
2023-04-26T07:07:43.952Z,100.00
2023-04-26T07:10:12.129Z,100.00
2023-04-26T07:12:40.109Z,100.00
2023-04-26T07:15:09.602Z,100.00
2023-04-26T07:17:37.425Z,100.00
2023-04-26T07:20:08.380Z,100.00
2023-04-26T07:22:36.197Z,100.00
2023-04-26T07:25:05.351Z,100.00
2023-04-26T07:27:33.348Z,100.00
2023-04-26T07:30:01.143Z,100.00
2023-04-26T07:32:29.250Z,100.00
2023-04-26T07:34:57.235Z,100.00
2023-04-26T07:37:26.428Z,100.00
2023-04-26T07:39:54.211Z,100.00
2023-04-26T07:42:22.021Z,100.00
2023-04-26T07:44:49.925Z,100.00
2023-04-26T07:47:17.740Z,100.00
2023-04-26T07:49:47.618Z,100.00
2023-04-26T07:52:15.749Z,100.00
2023-04-26T07:54:46.802Z,100.00
2023-04-26T07:57:14.715Z,100.00
2023-04-26T07:59:42.507Z,100.00
2023-04-26T08:02:11.056Z,100.00
2023-04-26T08:04:39.302Z,100.00
2023-04-26T08:07:07.278Z,100.00
2023-04-26T08:09:35.034Z,100.00
2023-04-26T08:12:05.793Z,100.00
2023-04-26T08:14:35.564Z,100.00
2023-04-26T08:17:03.615Z,100.00
2023-04-26T08:19:33.376Z,100.00
2023-04-26T08:22:01.332Z,100.00
2023-04-26T08:24:29.177Z,100.00
2023-04-26T08:26:58.499Z,100.00
2023-04-26T08:29:27.939Z,100.00
2023-04-26T08:31:55.786Z,100.00
2023-04-26T08:34:23.624Z,100.00
2023-04-26T08:36:51.475Z,100.00
2023-04-26T08:39:19.277Z,100.00
2023-04-26T08:41:51.534Z,100.00
2023-04-26T08:44:24.296Z,100.00
2023-04-26T08:47:01.619Z,100.00
2023-04-26T08:49:40.109Z,100.00
2023-04-26T08:52:11.990Z,100.00
2023-04-26T08:54:40.841Z,100.00
2023-04-26T08:57:09.033Z,100.00
2023-04-26T08:59:38.066Z,100.00
2023-04-26T09:02:08.425Z,100.00
2023-04-26T09:04:37.192Z,100.00
2023-04-26T09:07:05.937Z,100.00
2023-04-26T09:09:37.782Z,100.00
2023-04-26T09:12:05.819Z,100.00
2023-04-26T09:14:33.698Z,100.00
2023-04-26T09:17:01.953Z,100.00
2023-04-26T09:19:37.998Z,100.00
2023-04-26T09:22:06.284Z,100.00
2023-04-26T09:24:50.587Z,100.00
2023-04-26T09:27:18.520Z,100.00
2023-04-26T09:30:00.580Z,100.00
2023-04-26T09:32:29.214Z,100.00
2023-04-26T09:34:58.478Z,100.00
2023-04-26T09:37:26.284Z,100.00
2023-04-26T09:39:54.167Z,100.00
2023-04-26T09:42:22.121Z,100.00
2023-04-26T09:44:50.040Z,100.00
2023-04-26T09:47:17.803Z,100.00
2023-04-26T09:49:50.250Z,100.00
2023-04-26T09:52:20.186Z,100.00
2023-04-26T09:54:50.111Z,100.00
2023-04-26T09:57:19.603Z,100.00
2023-04-26T09:59:48.854Z,100.00
2023-04-26T10:02:22.775Z,100.00
2023-04-26T10:04:52.508Z,100.00
2023-04-26T10:07:23.566Z,100.00
2023-04-26T10:09:52.338Z,100.00
2023-04-26T10:12:21.142Z,100.00
2023-04-26T10:14:49.459Z,100.00
2023-04-26T10:17:19.754Z,100.00
2023-04-26T10:19:51.443Z,100.00
2023-04-26T10:22:23.205Z,100.00
2023-04-26T10:24:51.687Z,100.00
2023-04-26T10:27:54.601Z,100.00
2023-04-26T10:30:24.227Z,100.00
2023-04-26T10:33:16.490Z,100.00
2023-04-26T10:36:06.340Z,100.00
2023-04-26T10:38:36.470Z,100.00
2023-04-26T10:41:30.332Z,100.00
2023-04-26T10:43:59.772Z,100.00
2023-04-26T10:46:41.118Z,100.00
2023-04-26T10:49:19.353Z,100.00
2023-04-26T10:52:09.783Z,100.00
2023-04-26T10:54:53.395Z,100.00
2023-04-26T10:57:22.602Z,100.00
2023-04-26T11:00:27.111Z,100.00
2023-04-26T11:03:03.506Z,100.00
2023-04-26T11:06:01.460Z,100.00
2023-04-26T11:08:32.071Z,100.00
2023-04-26T11:11:13.415Z,100.00
2023-04-26T11:13:45.246Z,100.00
2023-04-26T11:16:14.550Z,100.00
2023-04-26T11:18:51.232Z,100.00
2023-04-26T11:21:22.536Z,97.77
2023-04-26T11:23:56.521Z,85.13
2023-04-26T11:26:33.980Z,87.54
2023-04-26T11:29:03.358Z,81.76
2023-04-26T11:31:31.829Z,85.75
2023-04-26T11:34:05.036Z,79.97
2023-04-26T11:36:32.866Z,87.63
2023-04-26T11:39:02.587Z,82.29
2023-04-26T11:41:31.952Z,87.84
2023-04-26T11:44:00.536Z,92.97
2023-04-26T11:46:28.590Z,100.00
2023-04-26T11:48:57.161Z,100.00
2023-04-26T11:51:25.249Z,91.23
2023-04-26T11:53:54.584Z,93.69
2023-04-26T11:56:23.092Z,100.00
2023-04-26T11:58:53.631Z,100.00
2023-04-26T12:01:23.390Z,100.00
2023-04-26T12:03:52.496Z,97.88
2023-04-26T12:06:21.002Z,95.10
2023-04-26T12:08:52.530Z,91.29
2023-04-26T12:11:21.260Z,100.00
2023-04-26T12:13:49.171Z,91.53
2023-04-26T12:16:26.107Z,87.08
2023-04-26T12:18:55.282Z,77.62
2023-04-26T12:21:24.340Z,76.40
2023-04-26T12:23:52.258Z,75.23
2023-04-26T12:26:20.458Z,75.14
2023-04-26T12:28:48.405Z,81.37
2023-04-26T12:31:16.239Z,70.25
2023-04-26T12:33:45.408Z,70.62
2023-04-26T12:36:14.007Z,62.22
2023-04-26T12:38:41.829Z,71.60
2023-04-26T12:41:09.554Z,79.92
2023-04-26T12:43:37.373Z,82.98
2023-04-26T12:46:05.598Z,87.55
2023-04-26T12:48:33.472Z,79.40
2023-04-26T12:51:03.216Z,67.53
2023-04-26T12:53:30.973Z,84.99
2023-04-26T12:55:58.903Z,100.00
2023-04-26T12:58:26.843Z,89.67
2023-04-26T13:00:54.592Z,96.07
2023-04-26T13:03:22.551Z,95.28
2023-04-26T13:05:50.761Z,95.32
2023-04-26T13:08:19.919Z,83.77
2023-04-26T13:10:47.716Z,81.64
2023-04-26T13:13:15.515Z,79.37
2023-04-26T13:15:43.358Z,61.63
2023-04-26T13:18:11.299Z,59.33
2023-04-26T13:20:39.156Z,67.87
2023-04-26T13:23:06.980Z,86.39
2023-04-26T13:25:36.179Z,79.13
2023-04-26T13:28:03.959Z,73.19
2023-04-26T13:30:32.168Z,69.76
2023-04-26T13:33:00.609Z,74.33
2023-04-26T13:35:28.469Z,69.16
2023-04-26T13:37:56.426Z,64.61
2023-04-26T13:40:24.245Z,67.69
2023-04-26T13:42:55.667Z,71.26
2023-04-26T13:45:23.399Z,77.70
2023-04-26T13:47:51.315Z,74.69
2023-04-26T13:50:19.672Z,79.15
2023-04-26T13:52:49.576Z,72.09
2023-04-26T13:55:17.506Z,71.09
2023-04-26T13:57:45.645Z,60.58
2023-04-26T14:00:16.465Z,72.89
2023-04-26T14:02:44.411Z,59.41
2023-04-26T14:05:13.091Z,65.31
2023-04-26T14:07:41.741Z,66.90
2023-04-26T14:10:10.448Z,63.82
2023-04-26T14:12:38.275Z,74.46
2023-04-26T14:15:07.415Z,68.05
2023-04-26T14:17:37.136Z,68.84
2023-04-26T14:20:06.686Z,61.78
2023-04-26T14:22:34.494Z,62.77
2023-04-26T14:25:02.359Z,62.28
2023-04-26T14:27:30.122Z,61.06
2023-04-26T14:29:57.950Z,68.01
2023-04-26T14:32:25.869Z,67.21
2023-04-26T14:34:55.070Z,65.37
2023-04-26T14:37:23.983Z,70.64
2023-04-26T14:39:51.917Z,58.94
2023-04-26T14:42:19.778Z,64.13
2023-04-26T14:44:47.727Z,67.78
2023-04-26T14:47:15.516Z,67.26
2023-04-26T14:49:43.279Z,65.34
2023-04-26T14:52:16.339Z,66.93
2023-04-26T14:54:44.387Z,68.05
2023-04-26T14:57:13.133Z,68.01
2023-04-26T14:59:41.869Z,66.18
2023-04-26T15:02:09.779Z,67.51
2023-04-26T15:04:38.112Z,83.13
2023-04-26T15:07:06.523Z,67.39
2023-04-26T15:09:35.646Z,69.76
2023-04-26T15:12:04.741Z,73.82
2023-04-26T15:14:32.554Z,69.50
2023-04-26T15:17:00.618Z,65.35
2023-04-26T15:19:28.560Z,62.03
2023-04-26T15:21:56.345Z,60.90
2023-04-26T15:24:24.229Z,64.64
2023-04-26T15:26:53.609Z,64.25
2023-04-26T15:29:21.378Z,61.57
2023-04-26T15:31:49.205Z,57.66
2023-04-26T15:34:17.206Z,59.27
2023-04-26T15:36:44.965Z,66.20
2023-04-26T15:39:13.012Z,68.03
2023-04-26T15:41:40.864Z,66.93
2023-04-26T15:44:10.221Z,69.13
2023-04-26T15:46:38.263Z,70.04
2023-04-26T15:49:06.346Z,67.95
2023-04-26T15:51:34.305Z,70.84
2023-04-26T15:54:02.210Z,77.12
2023-04-26T15:56:30.144Z,73.45
2023-04-26T15:58:58.349Z,75.93
2023-04-26T16:01:29.577Z,72.78
2023-04-26T16:03:57.670Z,74.65
2023-04-26T16:06:25.790Z,79.02
2023-04-26T16:08:53.772Z,78.59
2023-04-26T16:11:21.940Z,78.42
2023-04-26T16:13:52.034Z,78.98
2023-04-26T16:16:20.397Z,79.10
2023-04-26T16:18:49.850Z,76.83
2023-04-26T16:21:18.055Z,88.42
2023-04-26T16:23:46.331Z,80.45
2023-04-26T16:26:14.159Z,79.28
2023-04-26T16:28:42.113Z,80.80
2023-04-26T16:31:10.326Z,79.30
2023-04-26T16:33:38.203Z,84.99
2023-04-26T16:36:09.282Z,91.73
2023-04-26T16:38:37.135Z,97.12
2023-04-26T16:41:05.255Z,89.02
2023-04-26T16:43:33.167Z,95.35
2023-04-26T16:46:02.346Z,92.64
2023-04-26T16:48:32.094Z,96.17
2023-04-26T16:51:00.712Z,92.49
2023-04-26T16:53:30.184Z,98.07
2023-04-26T16:55:58.562Z,96.64
2023-04-26T16:58:27.151Z,100.00
2023-04-26T17:00:55.158Z,100.00
2023-04-26T17:03:24.064Z,100.00
2023-04-26T17:05:52.382Z,95.15
2023-04-26T17:08:20.799Z,98.83
2023-04-26T17:10:50.249Z,98.26
2023-04-26T17:13:18.360Z,99.25
2023-04-26T17:15:46.511Z,100.00
2023-04-26T17:18:14.330Z,100.00
2023-04-26T17:20:42.275Z,100.00
2023-04-26T17:23:10.158Z,100.00
2023-04-26T17:25:37.950Z,100.00
2023-04-26T17:28:07.202Z,99.78
2023-04-26T17:30:35.035Z,100.00
2023-04-26T17:33:03.027Z,100.00
2023-04-26T17:35:31.018Z,100.00
2023-04-26T17:37:58.854Z,100.00
2023-04-26T17:40:26.708Z,100.00
2023-04-26T17:42:54.551Z,100.00
2023-04-26T17:45:24.120Z,100.00
2023-04-26T17:47:52.036Z,100.00
2023-04-26T17:50:21.074Z,100.00
2023-04-26T17:52:49.056Z,100.00
2023-04-26T17:55:17.043Z,100.00
2023-04-26T17:57:44.937Z,100.00
2023-04-26T18:00:13.933Z,100.00
2023-04-26T18:02:44.362Z,100.00
2023-04-26T18:05:13.352Z,100.00
2023-04-26T18:07:41.241Z,100.00
2023-04-26T18:10:10.089Z,100.00
2023-04-26T18:12:38.074Z,100.00
2023-04-26T18:15:06.964Z,100.00
2023-04-26T18:17:34.816Z,100.00
2023-04-26T18:20:04.651Z,100.00
2023-04-26T18:22:32.493Z,100.00
2023-04-26T18:25:00.448Z,100.00
2023-04-26T18:27:28.263Z,100.00
2023-04-26T18:29:56.116Z,100.00
2023-04-26T18:32:23.985Z,100.00
2023-04-26T18:34:52.218Z,100.00
2023-04-26T18:37:21.483Z,100.00
2023-04-26T18:39:49.748Z,100.00
2023-04-26T18:42:17.546Z,100.00
2023-04-26T18:44:45.537Z,100.00
2023-04-26T18:47:13.336Z,100.00
2023-04-26T18:49:41.133Z,100.00
2023-04-26T18:52:09.908Z,100.00
2023-04-26T18:54:39.416Z,100.00
2023-04-26T18:57:07.275Z,100.00
2023-04-26T18:59:35.057Z,100.00
2023-04-26T19:02:04.356Z,100.00
2023-04-26T19:04:32.612Z,100.00
2023-04-26T19:07:01.115Z,100.00
2023-04-26T19:09:29.927Z,100.00
2023-04-26T19:12:00.473Z,100.00
2023-04-26T19:14:28.277Z,100.00
2023-04-26T19:16:56.348Z,100.00
2023-04-26T19:19:24.785Z,100.00
2023-04-26T19:21:54.819Z,100.00
2023-04-26T19:24:22.865Z,100.00
2023-04-26T19:26:50.683Z,100.00
2023-04-26T19:29:20.233Z,100.00
2023-04-26T19:31:48.100Z,100.00
2023-04-26T19:34:16.009Z,100.00
2023-04-26T19:36:44.083Z,100.00
2023-04-26T19:39:12.128Z,100.00
2023-04-26T19:41:39.910Z,100.00
2023-04-26T19:44:07.711Z,100.00
2023-04-26T19:46:37.847Z,100.00
2023-04-26T19:49:05.853Z,100.00
2023-04-26T19:51:33.901Z,100.00
2023-04-26T19:54:01.829Z,100.00
2023-04-26T19:56:29.641Z,100.00
2023-04-26T19:58:57.548Z,100.00
2023-04-26T20:01:25.381Z,100.00
2023-04-26T20:03:55.899Z,100.00
2023-04-26T20:06:23.805Z,100.00
2023-04-26T20:08:51.574Z,100.00
2023-04-26T20:11:19.386Z,100.00
2023-04-26T20:13:48.435Z,100.00
2023-04-26T20:16:16.376Z,100.00
2023-04-26T20:18:44.463Z,100.00
2023-04-26T20:21:13.615Z,100.00
2023-04-26T20:23:41.535Z,100.00
2023-04-26T20:26:12.422Z,100.00
2023-04-26T20:28:40.286Z,100.00
2023-04-26T20:31:08.211Z,100.00
2023-04-26T20:33:36.679Z,100.00
2023-04-26T20:36:04.686Z,100.00
2023-04-26T20:38:33.923Z,100.00
2023-04-26T20:41:01.835Z,100.00
2023-04-26T20:43:29.745Z,100.00
2023-04-26T20:45:57.622Z,100.00
2023-04-26T20:48:25.605Z,100.00
2023-04-26T20:50:55.199Z,100.00
2023-04-26T20:53:23.077Z,100.00
2023-04-26T20:55:53.993Z,100.00
2023-04-26T20:58:21.862Z,100.00
2023-04-26T21:00:50.680Z,100.00
2023-04-26T21:03:18.765Z,100.00
2023-04-26T21:05:46.872Z,100.00
2023-04-26T21:08:15.092Z,100.00
2023-04-26T21:10:42.873Z,100.00
2023-04-26T21:13:12.074Z,100.00
2023-04-26T21:15:42.129Z,100.00
2023-04-26T21:18:09.913Z,100.00
2023-04-26T21:20:37.759Z,100.00
2023-04-26T21:23:05.630Z,100.00
2023-04-26T21:25:34.657Z,100.00
2023-04-26T21:28:02.522Z,100.00
2023-04-26T21:30:31.868Z,100.00
2023-04-26T21:32:59.857Z,100.00
2023-04-26T21:35:27.772Z,100.00
2023-04-26T21:37:55.688Z,100.00
2023-04-26T21:40:23.496Z,100.00
2023-04-26T21:43:03.917Z,100.00
2023-04-26T21:45:34.294Z,100.00
2023-04-26T21:48:02.836Z,100.00
2023-04-26T21:50:30.821Z,100.00
2023-04-26T21:52:58.729Z,100.00
2023-04-26T21:55:26.916Z,100.00
2023-04-26T21:57:54.939Z,100.00
2023-04-26T22:00:23.241Z,100.00
2023-04-26T22:02:52.573Z,100.00
2023-04-26T22:05:20.987Z,100.00
2023-04-26T22:07:49.071Z,100.00
2023-04-26T22:10:17.093Z,100.00
2023-04-26T22:12:45.030Z,100.00
2023-04-26T22:15:13.178Z,100.00
2023-04-26T22:17:41.125Z,100.00
2023-04-26T22:20:11.979Z,100.00
2023-04-26T22:22:40.783Z,100.00
2023-04-26T22:25:09.359Z,100.00
2023-04-26T22:27:37.277Z,100.00
2023-04-26T22:30:23.142Z,100.00
2023-04-26T22:32:54.736Z,100.00
2023-04-26T22:35:24.950Z,100.00
2023-04-26T22:37:52.765Z,100.00
2023-04-26T22:40:20.832Z,100.00
2023-04-26T22:42:48.758Z,100.00
2023-04-26T22:45:16.769Z,100.00
2023-04-26T22:47:44.705Z,100.00
2023-04-26T22:50:12.816Z,100.00
2023-04-26T22:52:42.067Z,100.00
2023-04-26T22:55:10.717Z,100.00
2023-04-26T22:57:38.525Z,100.00
2023-04-26T23:00:09.544Z,100.00
2023-04-26T23:02:37.489Z,100.00
2023-04-26T23:05:08.868Z,100.00
2023-04-26T23:07:36.689Z,100.00
2023-04-26T23:10:08.415Z,100.00
2023-04-26T23:12:37.002Z,100.00
2023-04-26T23:15:06.147Z,100.00
2023-04-26T23:17:34.736Z,100.00
2023-04-26T23:20:02.808Z,100.00
2023-04-26T23:22:30.571Z,100.00
2023-04-26T23:24:58.322Z,100.00
2023-04-26T23:27:27.683Z,100.00
2023-04-26T23:29:56.746Z,100.00
2023-04-26T23:32:24.693Z,100.00
2023-04-26T23:34:52.513Z,100.00
2023-04-26T23:37:20.312Z,100.00
2023-04-26T23:39:48.082Z,100.00
2023-04-26T23:42:15.876Z,100.00
2023-04-26T23:44:44.971Z,100.00
2023-04-26T23:47:12.725Z,100.00
2023-04-26T23:49:40.585Z,100.00
2023-04-26T23:52:08.362Z,100.00
2023-04-26T23:54:36.123Z,100.00
2023-04-26T23:57:04.620Z,100.00
2023-04-26T23:59:32.418Z,100.00
